Bareilly — A8KG7 — position and weather

sailwx.info

Track history (hours):
 
Tides and Currents Weather Stations Pressure Air Temp Water Temp Dewpoint Dewpoint Depression Visibility Wind Speed Wind Dir Waves Ship Positions

Bareilly

Last reported at 2017-Jan-30 16:18 UTC. Time now 2017-Feb-28 07:38 UTC.
Position S 33°51' E 151°28'.
Warning: this ship's position is 28 days out of date.

Length 243 m; draft 8.5 m.

Type: Tanker. MMSI: 636013054.

Date/timePositionNaut miles runAvg speedWind from/ knotsBaromVisibWave heightAir tempDewpointWater temp
2017-Jan-30 16:18S 33°51' E 151°28'2 2.5
2017-Jan-30 15:33S 33°50' E 151°26'1 0.6
2017-Jan-30 14:33S 33°51' E 151°27'4 3.7
2017-Jan-30 13:33S 33°54' E 151°29'5 5.1
2017-Jan-30 12:33S 33°59' E 151°31'2 2.3
2017-Jan-30 11:33S 33°57' E 151°29'2 2.5
2017-Jan-30 10:33S 33°55' E 151°28'2 2.2
2017-Jan-30 09:33S 33°53' E 151°28'1 1.1
2017-Jan-30 08:33S 33°52' E 151°27'8 7.5
2017-Jan-30 07:33S 33°59' E 151°29'2 2.1
2017-Jan-30 06:33S 33°57' E 151°29'2 2.0
2017-Jan-30 05:33S 33°55' E 151°28'2 1.9
2017-Jan-30 04:31S 33°53' E 151°28'4 0.4
2017-Jan-29 18:23S 33°56' E 151°30'1 0.9
2017-Jan-29 17:23S 33°56' E 151°30'4 1.2
2017-Jan-29 14:14S 33°52' E 151°28'1 2.0
2017-Jan-29 13:33S 33°51' E 151°28'4 3.8
2017-Jan-29 12:33S 33°52' E 151°24'1 1.0
2017-Jan-29 11:33S 33°51' E 151°25'1 1.2
2017-Jan-29 10:33S 33°51' E 151°26'9 4.1
2017-Jan-29 08:25S 33°43' E 151°30'1 1.1
2017-Jan-29 07:32S 33°44' E 151°31'1 1.0
2017-Jan-29 06:20S 33°45' E 151°32'1 1.1
2017-Jan-29 05:33S 33°46' E 151°32'1 1.3
2017-Jan-29 04:33S 33°47' E 151°32'6 0.8
2017-Jan-28 20:04S 33°50' E 151°24'0 0.8
2017-Jan-28 19:33S 33°50' E 151°24'1 0.9
2017-Jan-28 18:33S 33°51' E 151°25'1 1.0
2017-Jan-28 17:31S 33°52' E 151°25'1 1.0
2017-Jan-28 16:31S 33°52' E 151°26'1 0.6
2017-Jan-28 15:33S 33°52' E 151°27'1 0.6
2017-Jan-28 14:33S 33°52' E 151°28'4 4.0
2017-Jan-28 13:33S 33°52' E 151°23'1 1.0
2017-Jan-28 12:33S 33°52' E 151°24'1 1.1
2017-Jan-28 11:33S 33°51' E 151°25'1 1.2
2017-Jan-28 10:33S 33°51' E 151°26'3 3.3
2017-Jan-28 09:33S 33°54' E 151°27'3 2.8
2017-Jan-28 08:33S 33°57' E 151°28'3 2.7
2017-Jan-28 07:33S 33°54' E 151°27'3 2.9
2017-Jan-28 06:33S 33°51' E 151°27'3 2.9
2017-Jan-28 05:33S 33°49' E 151°25'2 1.9
2017-Jan-28 04:33S 33°50' E 151°27'6 5.8
2017-Jan-28 03:32S 33°56' E 151°25'  
Track history (hours):
 
Tides and Currents Weather Stations Pressure Air Temp Water Temp Dewpoint Dewpoint Depression Visibility Wind Speed Wind Dir Waves Ship Positions

Bareilly

Last reported at 2017-Jan-30 16:18 UTC. Time now 2017-Feb-28 07:38 UTC.
Position S 33°51' E 151°28'.
Warning: this ship's position is 28 days out of date.

Length 243 m; draft 8.5 m.

Type: Tanker. MMSI: 636013054.

Date/timePositionNaut miles runAvg speedWind from/ knotsBaromVisibWave heightAir tempDewpointWater temp
2017-Jan-30 16:18S 33°51' E 151°28'2 2.5
2017-Jan-30 15:33S 33°50' E 151°26'1 0.6
2017-Jan-30 14:33S 33°51' E 151°27'4 3.7
2017-Jan-30 13:33S 33°54' E 151°29'5 5.1
2017-Jan-30 12:33S 33°59' E 151°31'2 2.3
2017-Jan-30 11:33S 33°57' E 151°29'2 2.5
2017-Jan-30 10:33S 33°55' E 151°28'2 2.2
2017-Jan-30 09:33S 33°53' E 151°28'1 1.1
2017-Jan-30 08:33S 33°52' E 151°27'8 7.5
2017-Jan-30 07:33S 33°59' E 151°29'2 2.1
2017-Jan-30 06:33S 33°57' E 151°29'2 2.0
2017-Jan-30 05:33S 33°55' E 151°28'2 1.9
2017-Jan-30 04:31S 33°53' E 151°28'4 0.4
2017-Jan-29 18:23S 33°56' E 151°30'1 0.9
2017-Jan-29 17:23S 33°56' E 151°30'4 1.2
2017-Jan-29 14:14S 33°52' E 151°28'1 2.0
2017-Jan-29 13:33S 33°51' E 151°28'4 3.8
2017-Jan-29 12:33S 33°52' E 151°24'1 1.0
2017-Jan-29 11:33S 33°51' E 151°25'1 1.2
2017-Jan-29 10:33S 33°51' E 151°26'9 4.1
2017-Jan-29 08:25S 33°43' E 151°30'1 1.1
2017-Jan-29 07:32S 33°44' E 151°31'1 1.0
2017-Jan-29 06:20S 33°45' E 151°32'1 1.1
2017-Jan-29 05:33S 33°46' E 151°32'1 1.3
2017-Jan-29 04:33S 33°47' E 151°32'6 0.8
2017-Jan-28 20:04S 33°50' E 151°24'0 0.8
2017-Jan-28 19:33S 33°50' E 151°24'1 0.9
2017-Jan-28 18:33S 33°51' E 151°25'1 1.0
2017-Jan-28 17:31S 33°52' E 151°25'1 1.0
2017-Jan-28 16:31S 33°52' E 151°26'1 0.6
2017-Jan-28 15:33S 33°52' E 151°27'1 0.6
2017-Jan-28 14:33S 33°52' E 151°28'4 4.0
2017-Jan-28 13:33S 33°52' E 151°23'1 1.0
2017-Jan-28 12:33S 33°52' E 151°24'1 1.1
2017-Jan-28 11:33S 33°51' E 151°25'1 1.2
2017-Jan-28 10:33S 33°51' E 151°26'3 3.3
2017-Jan-28 09:33S 33°54' E 151°27'3 2.8
2017-Jan-28 08:33S 33°57' E 151°28'3 2.7
2017-Jan-28 07:33S 33°54' E 151°27'3 2.9
2017-Jan-28 06:33S 33°51' E 151°27'3 2.9
2017-Jan-28 05:33S 33°49' E 151°25'2 1.9
2017-Jan-28 04:33S 33°50' E 151°27'6 5.8
2017-Jan-28 03:32S 33°56' E 151°25'  

Dump ship's entire track history